sensor_id;sensor_type;location;lat;lon;timestamp;P1;durP1;ratioP1;P2;durP2;ratioP2
17921;SDS011;9086;50.966;3.144;2023-04-23T00:00:14;19.97;;;17.97;;
17921;SDS011;9086;50.966;3.144;2023-04-23T00:02:44;20.83;;;17.63;;
17921;SDS011;9086;50.966;3.144;2023-04-23T00:05:11;20.37;;;18.27;;
17921;SDS011;9086;50.966;3.144;2023-04-23T00:07:37;20.10;;;18.00;;
17921;SDS011;9086;50.966;3.144;2023-04-23T00:10:06;20.10;;;18.00;;
17921;SDS011;9086;50.966;3.144;2023-04-23T00:12:33;19.13;;;17.13;;
17921;SDS011;9086;50.966;3.144;2023-04-23T00:14:59;20.77;;;18.57;;
17921;SDS011;9086;50.966;3.144;2023-04-23T00:17:25;20.07;;;18.00;;
17921;SDS011;9086;50.966;3.144;2023-04-23T00:19:58;19.63;;;17.63;;
17921;SDS011;9086;50.966;3.144;2023-04-23T00:22:24;20.67;;;18.50;;
17921;SDS011;9086;50.966;3.144;2023-04-23T00:24:50;20.47;;;18.33;;
17921;SDS011;9086;50.966;3.144;2023-04-23T00:27:16;19.63;;;17.50;;
17921;SDS011;9086;50.966;3.144;2023-04-23T00:29:42;19.97;;;18.00;;
17921;SDS011;9086;50.966;3.144;2023-04-23T00:32:10;18.83;;;16.83;;
17921;SDS011;9086;50.966;3.144;2023-04-23T00:34:36;20.43;;;18.20;;
17921;SDS011;9086;50.966;3.144;2023-04-23T00:37:02;22.93;;;18.63;;
17921;SDS011;9086;50.966;3.144;2023-04-23T00:39:30;19.13;;;17.03;;
17921;SDS011;9086;50.966;3.144;2023-04-23T00:41:57;21.27;;;19.03;;
17921;SDS011;9086;50.966;3.144;2023-04-23T00:44:26;20.47;;;18.00;;
17921;SDS011;9086;50.966;3.144;2023-04-23T00:46:52;19.63;;;17.23;;
17921;SDS011;9086;50.966;3.144;2023-04-23T00:49:18;19.47;;;17.43;;
17921;SDS011;9086;50.966;3.144;2023-04-23T00:51:45;19.73;;;16.80;;
17921;SDS011;9086;50.966;3.144;2023-04-23T00:54:11;20.90;;;18.83;;
17921;SDS011;9086;50.966;3.144;2023-04-23T00:56:38;20.73;;;18.60;;
17921;SDS011;9086;50.966;3.144;2023-04-23T00:59:06;21.93;;;17.60;;
17921;SDS011;9086;50.966;3.144;2023-04-23T01:01:33;20.13;;;18.03;;
17921;SDS011;9086;50.966;3.144;2023-04-23T01:03:59;18.73;;;16.77;;
17921;SDS011;9086;50.966;3.144;2023-04-23T01:06:26;19.73;;;17.73;;
17921;SDS011;9086;50.966;3.144;2023-04-23T01:08:52;19.33;;;17.53;;
17921;SDS011;9086;50.966;3.144;2023-04-23T01:11:19;18.97;;;16.70;;
17921;SDS011;9086;50.966;3.144;2023-04-23T01:13:45;21.13;;;18.03;;
17921;SDS011;9086;50.966;3.144;2023-04-23T01:16:11;19.73;;;17.73;;
17921;SDS011;9086;50.966;3.144;2023-04-23T01:18:37;20.27;;;17.07;;
17921;SDS011;9086;50.966;3.144;2023-04-23T01:21:05;23.17;;;18.40;;
17921;SDS011;9086;50.966;3.144;2023-04-23T01:23:31;20.20;;;18.10;;
17921;SDS011;9086;50.966;3.144;2023-04-23T01:25:57;20.50;;;18.07;;
17921;SDS011;9086;50.966;3.144;2023-04-23T01:28:23;19.70;;;17.63;;
17921;SDS011;9086;50.966;3.144;2023-04-23T01:30:49;18.63;;;16.63;;
17921;SDS011;9086;50.966;3.144;2023-04-23T01:33:16;18.80;;;16.83;;
17921;SDS011;9086;50.966;3.144;2023-04-23T01:35:43;18.63;;;16.63;;
17921;SDS011;9086;50.966;3.144;2023-04-23T01:38:10;19.17;;;17.13;;
17921;SDS011;9086;50.966;3.144;2023-04-23T01:40:36;17.27;;;15.47;;
17921;SDS011;9086;50.966;3.144;2023-04-23T01:43:03;18.47;;;16.57;;
17921;SDS011;9086;50.966;3.144;2023-04-23T01:45:29;18.97;;;16.03;;
17921;SDS011;9086;50.966;3.144;2023-04-23T01:47:56;20.03;;;16.33;;
17921;SDS011;9086;50.966;3.144;2023-04-23T01:50:22;18.20;;;16.30;;
17921;SDS011;9086;50.966;3.144;2023-04-23T01:52:50;18.77;;;16.87;;
17921;SDS011;9086;50.966;3.144;2023-04-23T01:55:16;19.67;;;17.10;;
17921;SDS011;9086;50.966;3.144;2023-04-23T01:57:43;18.23;;;16.37;;
17921;SDS011;9086;50.966;3.144;2023-04-23T02:00:10;18.47;;;16.07;;
17921;SDS011;9086;50.966;3.144;2023-04-23T02:02:37;20.47;;;17.50;;
17921;SDS011;9086;50.966;3.144;2023-04-23T02:05:04;18.27;;;16.37;;
17921;SDS011;9086;50.966;3.144;2023-04-23T02:07:34;17.83;;;16.03;;
17921;SDS011;9086;50.966;3.144;2023-04-23T02:10:01;18.53;;;15.97;;
17921;SDS011;9086;50.966;3.144;2023-04-23T02:12:29;17.43;;;15.47;;
17921;SDS011;9086;50.966;3.144;2023-04-23T02:14:56;18.13;;;15.70;;
17921;SDS011;9086;50.966;3.144;2023-04-23T02:17:22;17.03;;;15.17;;
17921;SDS011;9086;50.966;3.144;2023-04-23T02:19:48;17.63;;;15.83;;
17921;SDS011;9086;50.966;3.144;2023-04-23T02:22:15;16.67;;;14.33;;
17921;SDS011;9086;50.966;3.144;2023-04-23T02:24:41;17.07;;;14.77;;
17921;SDS011;9086;50.966;3.144;2023-04-23T02:27:08;17.20;;;15.10;;
17921;SDS011;9086;50.966;3.144;2023-04-23T02:29:34;15.43;;;13.87;;
17921;SDS011;9086;50.966;3.144;2023-04-23T02:32:02;14.87;;;13.17;;
17921;SDS011;9086;50.966;3.144;2023-04-23T02:34:28;17.40;;;14.67;;
17921;SDS011;9086;50.966;3.144;2023-04-23T02:36:54;15.80;;;14.20;;
17921;SDS011;9086;50.966;3.144;2023-04-23T02:39:21;15.40;;;13.77;;
17921;SDS011;9086;50.966;3.144;2023-04-23T02:41:47;16.07;;;14.43;;
17921;SDS011;9086;50.966;3.144;2023-04-23T02:44:13;14.33;;;12.83;;
17921;SDS011;9086;50.966;3.144;2023-04-23T02:46:39;15.17;;;13.57;;
17921;SDS011;9086;50.966;3.144;2023-04-23T02:49:05;15.00;;;13.43;;
17921;SDS011;9086;50.966;3.144;2023-04-23T02:51:31;16.03;;;14.33;;
17921;SDS011;9086;50.966;3.144;2023-04-23T02:53:57;16.97;;;15.20;;
17921;SDS011;9086;50.966;3.144;2023-04-23T02:56:23;16.13;;;14.43;;
17921;SDS011;9086;50.966;3.144;2023-04-23T02:58:54;16.00;;;14.37;;
17921;SDS011;9086;50.966;3.144;2023-04-23T03:01:25;16.40;;;14.40;;
17921;SDS011;9086;50.966;3.144;2023-04-23T03:03:53;16.47;;;14.77;;
17921;SDS011;9086;50.966;3.144;2023-04-23T03:06:20;19.57;;;14.87;;
17921;SDS011;9086;50.966;3.144;2023-04-23T03:08:46;15.77;;;14.07;;
17921;SDS011;9086;50.966;3.144;2023-04-23T03:11:12;18.03;;;14.90;;
17921;SDS011;9086;50.966;3.144;2023-04-23T03:13:38;19.77;;;15.90;;
17921;SDS011;9086;50.966;3.144;2023-04-23T03:16:08;15.90;;;14.30;;
17921;SDS011;9086;50.966;3.144;2023-04-23T03:18:37;15.77;;;14.17;;
17921;SDS011;9086;50.966;3.144;2023-04-23T03:21:03;16.27;;;14.37;;
17921;SDS011;9086;50.966;3.144;2023-04-23T03:23:29;18.07;;;15.07;;
17921;SDS011;9086;50.966;3.144;2023-04-23T03:25:55;17.93;;;14.53;;
17921;SDS011;9086;50.966;3.144;2023-04-23T03:28:21;16.10;;;14.40;;
17921;SDS011;9086;50.966;3.144;2023-04-23T03:30:47;16.17;;;14.27;;
17921;SDS011;9086;50.966;3.144;2023-04-23T03:33:13;14.93;;;13.30;;
17921;SDS011;9086;50.966;3.144;2023-04-23T03:35:39;16.50;;;14.20;;
17921;SDS011;9086;50.966;3.144;2023-04-23T03:38:05;16.30;;;14.27;;
17921;SDS011;9086;50.966;3.144;2023-04-23T03:40:33;15.10;;;13.47;;
17921;SDS011;9086;50.966;3.144;2023-04-23T03:42:59;16.13;;;13.10;;
17921;SDS011;9086;50.966;3.144;2023-04-23T03:45:28;15.73;;;12.67;;
17921;SDS011;9086;50.966;3.144;2023-04-23T03:47:55;16.90;;;13.70;;
17921;SDS011;9086;50.966;3.144;2023-04-23T03:50:21;15.60;;;13.77;;
17921;SDS011;9086;50.966;3.144;2023-04-23T03:52:53;15.93;;;14.13;;
17921;SDS011;9086;50.966;3.144;2023-04-23T03:55:21;15.40;;;13.13;;
17921;SDS011;9086;50.966;3.144;2023-04-23T03:57:47;15.17;;;12.93;;
17921;SDS011;9086;50.966;3.144;2023-04-23T04:00:15;14.67;;;12.13;;
17921;SDS011;9086;50.966;3.144;2023-04-23T04:02:41;16.30;;;12.37;;
17921;SDS011;9086;50.966;3.144;2023-04-23T04:05:07;15.17;;;12.53;;
17921;SDS011;9086;50.966;3.144;2023-04-23T04:07:36;14.43;;;11.97;;
17921;SDS011;9086;50.966;3.144;2023-04-23T04:10:02;12.47;;;11.17;;
17921;SDS011;9086;50.966;3.144;2023-04-23T04:12:30;14.63;;;12.03;;
17921;SDS011;9086;50.966;3.144;2023-04-23T04:14:57;12.77;;;10.53;;
17921;SDS011;9086;50.966;3.144;2023-04-23T04:17:23;13.00;;;10.00;;
17921;SDS011;9086;50.966;3.144;2023-04-23T04:19:49;12.00;;;10.80;;
17921;SDS011;9086;50.966;3.144;2023-04-23T04:22:23;11.53;;;9.57;;
17921;SDS011;9086;50.966;3.144;2023-04-23T04:24:51;13.57;;;10.07;;
17921;SDS011;9086;50.966;3.144;2023-04-23T04:27:17;12.23;;;10.03;;
17921;SDS011;9086;50.966;3.144;2023-04-23T04:29:43;12.40;;;9.37;;
17921;SDS011;9086;50.966;3.144;2023-04-23T04:32:09;10.73;;;8.23;;
17921;SDS011;9086;50.966;3.144;2023-04-23T04:34:37;10.13;;;8.10;;
17921;SDS011;9086;50.966;3.144;2023-04-23T04:37:03;8.97;;;8.07;;
17921;SDS011;9086;50.966;3.144;2023-04-23T04:39:35;10.40;;;7.13;;
17921;SDS011;9086;50.966;3.144;2023-04-23T04:42:05;9.30;;;7.40;;
17921;SDS011;9086;50.966;3.144;2023-04-23T04:44:31;7.13;;;6.23;;
17921;SDS011;9086;50.966;3.144;2023-04-23T04:46:58;10.57;;;6.40;;
17921;SDS011;9086;50.966;3.144;2023-04-23T04:49:26;9.23;;;6.20;;
17921;SDS011;9086;50.966;3.144;2023-04-23T04:51:54;9.90;;;6.37;;
17921;SDS011;9086;50.966;3.144;2023-04-23T04:54:20;10.53;;;6.23;;
17921;SDS011;9086;50.966;3.144;2023-04-23T04:56:48;10.40;;;6.27;;
17921;SDS011;9086;50.966;3.144;2023-04-23T04:59:23;8.53;;;5.67;;
17921;SDS011;9086;50.966;3.144;2023-04-23T05:01:50;8.23;;;5.30;;
17921;SDS011;9086;50.966;3.144;2023-04-23T05:04:16;8.87;;;5.73;;
17921;SDS011;9086;50.966;3.144;2023-04-23T05:06:42;11.03;;;5.47;;
17921;SDS011;9086;50.966;3.144;2023-04-23T05:09:14;8.60;;;5.00;;
17921;SDS011;9086;50.966;3.144;2023-04-23T05:11:41;9.47;;;5.33;;
17921;SDS011;9086;50.966;3.144;2023-04-23T05:14:09;10.10;;;4.97;;
17921;SDS011;9086;50.966;3.144;2023-04-23T05:16:36;7.63;;;5.40;;
17921;SDS011;9086;50.966;3.144;2023-04-23T05:19:02;14.90;;;5.70;;
17921;SDS011;9086;50.966;3.144;2023-04-23T05:21:30;7.30;;;5.13;;
17921;SDS011;9086;50.966;3.144;2023-04-23T05:23:56;9.57;;;5.10;;
17921;SDS011;9086;50.966;3.144;2023-04-23T05:26:22;9.23;;;5.67;;
17921;SDS011;9086;50.966;3.144;2023-04-23T05:28:48;12.00;;;5.80;;
17921;SDS011;9086;50.966;3.144;2023-04-23T05:31:18;10.90;;;5.83;;
17921;SDS011;9086;50.966;3.144;2023-04-23T05:33:47;6.10;;;4.83;;
17921;SDS011;9086;50.966;3.144;2023-04-23T05:36:13;8.93;;;5.20;;
17921;SDS011;9086;50.966;3.144;2023-04-23T05:38:39;10.23;;;5.60;;
17921;SDS011;9086;50.966;3.144;2023-04-23T05:41:05;7.90;;;5.30;;
17921;SDS011;9086;50.966;3.144;2023-04-23T05:43:31;8.43;;;5.03;;
17921;SDS011;9086;50.966;3.144;2023-04-23T05:45:57;6.47;;;5.77;;
17921;SDS011;9086;50.966;3.144;2023-04-23T05:48:26;10.70;;;5.57;;
17921;SDS011;9086;50.966;3.144;2023-04-23T05:50:52;9.03;;;5.77;;
17921;SDS011;9086;50.966;3.144;2023-04-23T05:53:18;10.23;;;6.37;;
17921;SDS011;9086;50.966;3.144;2023-04-23T05:55:44;8.47;;;5.90;;
17921;SDS011;9086;50.966;3.144;2023-04-23T05:58:10;8.53;;;5.23;;
17921;SDS011;9086;50.966;3.144;2023-04-23T06:00:36;10.77;;;5.77;;
17921;SDS011;9086;50.966;3.144;2023-04-23T06:03:04;9.60;;;5.20;;
17921;SDS011;9086;50.966;3.144;2023-04-23T06:05:33;10.40;;;6.37;;
17921;SDS011;9086;50.966;3.144;2023-04-23T06:08:07;11.00;;;6.30;;
17921;SDS011;9086;50.966;3.144;2023-04-23T06:10:33;13.27;;;5.90;;
17921;SDS011;9086;50.966;3.144;2023-04-23T06:12:59;11.53;;;5.40;;
17921;SDS011;9086;50.966;3.144;2023-04-23T06:15:25;6.87;;;5.60;;
17921;SDS011;9086;50.966;3.144;2023-04-23T06:17:54;7.33;;;5.47;;
17921;SDS011;9086;50.966;3.144;2023-04-23T06:20:20;8.97;;;6.10;;
17921;SDS011;9086;50.966;3.144;2023-04-23T06:22:46;6.97;;;5.17;;
17921;SDS011;9086;50.966;3.144;2023-04-23T06:25:12;9.67;;;5.70;;
17921;SDS011;9086;50.966;3.144;2023-04-23T06:27:38;12.10;;;5.50;;
17921;SDS011;9086;50.966;3.144;2023-04-23T06:30:05;5.90;;;4.53;;
17921;SDS011;9086;50.966;3.144;2023-04-23T06:32:31;12.67;;;4.57;;
17921;SDS011;9086;50.966;3.144;2023-04-23T06:34:57;9.87;;;4.70;;
17921;SDS011;9086;50.966;3.144;2023-04-23T06:37:23;8.30;;;5.40;;
17921;SDS011;9086;50.966;3.144;2023-04-23T06:39:50;7.37;;;5.00;;
17921;SDS011;9086;50.966;3.144;2023-04-23T06:42:16;7.33;;;4.27;;
17921;SDS011;9086;50.966;3.144;2023-04-23T06:44:42;9.80;;;4.60;;
17921;SDS011;9086;50.966;3.144;2023-04-23T06:47:15;8.17;;;4.53;;
17921;SDS011;9086;50.966;3.144;2023-04-23T06:49:44;11.30;;;4.80;;
17921;SDS011;9086;50.966;3.144;2023-04-23T06:52:10;6.13;;;4.10;;
17921;SDS011;9086;50.966;3.144;2023-04-23T06:54:38;9.37;;;4.20;;
17921;SDS011;9086;50.966;3.144;2023-04-23T06:57:06;9.10;;;4.03;;
17921;SDS011;9086;50.966;3.144;2023-04-23T06:59:32;6.03;;;3.67;;
17921;SDS011;9086;50.966;3.144;2023-04-23T07:01:58;7.80;;;3.10;;
17921;SDS011;9086;50.966;3.144;2023-04-23T07:04:24;5.37;;;3.50;;
17921;SDS011;9086;50.966;3.144;2023-04-23T07:06:52;8.67;;;3.37;;
17921;SDS011;9086;50.966;3.144;2023-04-23T07:09:21;5.27;;;3.60;;
17921;SDS011;9086;50.966;3.144;2023-04-23T07:11:47;7.77;;;3.10;;
17921;SDS011;9086;50.966;3.144;2023-04-23T07:14:13;7.90;;;3.33;;
17921;SDS011;9086;50.966;3.144;2023-04-23T07:16:39;6.83;;;3.30;;
17921;SDS011;9086;50.966;3.144;2023-04-23T07:19:05;7.37;;;3.20;;
17921;SDS011;9086;50.966;3.144;2023-04-23T07:21:31;7.13;;;3.37;;
17921;SDS011;9086;50.966;3.144;2023-04-23T07:23:59;6.73;;;3.10;;
17921;SDS011;9086;50.966;3.144;2023-04-23T07:26:32;6.13;;;2.77;;
17921;SDS011;9086;50.966;3.144;2023-04-23T07:29:03;6.40;;;3.03;;
17921;SDS011;9086;50.966;3.144;2023-04-23T07:31:34;6.37;;;3.10;;
17921;SDS011;9086;50.966;3.144;2023-04-23T07:34:00;7.33;;;2.57;;
17921;SDS011;9086;50.966;3.144;2023-04-23T07:36:27;6.40;;;2.97;;
17921;SDS011;9086;50.966;3.144;2023-04-23T07:38:53;7.23;;;3.37;;
17921;SDS011;9086;50.966;3.144;2023-04-23T07:41:21;8.60;;;2.90;;
17921;SDS011;9086;50.966;3.144;2023-04-23T07:43:49;7.73;;;2.50;;
17921;SDS011;9086;50.966;3.144;2023-04-23T07:46:15;6.80;;;2.47;;
17921;SDS011;9086;50.966;3.144;2023-04-23T07:48:41;9.03;;;3.07;;
17921;SDS011;9086;50.966;3.144;2023-04-23T07:51:09;12.87;;;2.87;;
17921;SDS011;9086;50.966;3.144;2023-04-23T07:53:36;10.50;;;3.03;;
17921;SDS011;9086;50.966;3.144;2023-04-23T07:56:02;6.43;;;2.63;;
17921;SDS011;9086;50.966;3.144;2023-04-23T07:58:30;6.90;;;3.03;;
17921;SDS011;9086;50.966;3.144;2023-04-23T08:00:57;7.87;;;2.63;;
17921;SDS011;9086;50.966;3.144;2023-04-23T08:03:23;10.03;;;2.63;;
17921;SDS011;9086;50.966;3.144;2023-04-23T08:05:49;9.87;;;2.87;;
17921;SDS011;9086;50.966;3.144;2023-04-23T08:08:17;8.53;;;2.63;;
17921;SDS011;9086;50.966;3.144;2023-04-23T08:10:45;8.73;;;3.23;;
17921;SDS011;9086;50.966;3.144;2023-04-23T08:13:14;5.63;;;2.70;;
17921;SDS011;9086;50.966;3.144;2023-04-23T08:15:40;12.27;;;3.23;;
17921;SDS011;9086;50.966;3.144;2023-04-23T08:18:08;5.87;;;2.70;;
17921;SDS011;9086;50.966;3.144;2023-04-23T08:20:35;7.10;;;2.87;;
17921;SDS011;9086;50.966;3.144;2023-04-23T08:23:03;5.83;;;3.07;;
17921;SDS011;9086;50.966;3.144;2023-04-23T08:25:32;6.93;;;2.97;;
17921;SDS011;9086;50.966;3.144;2023-04-23T08:28:04;5.83;;;2.93;;
17921;SDS011;9086;50.966;3.144;2023-04-23T08:30:30;5.57;;;3.27;;
17921;SDS011;9086;50.966;3.144;2023-04-23T08:32:56;6.63;;;2.73;;
17921;SDS011;9086;50.966;3.144;2023-04-23T08:35:27;8.37;;;2.83;;
17921;SDS011;9086;50.966;3.144;2023-04-23T08:38:00;7.03;;;3.57;;
17921;SDS011;9086;50.966;3.144;2023-04-23T08:40:33;9.53;;;4.50;;
17921;SDS011;9086;50.966;3.144;2023-04-23T08:43:02;8.20;;;3.67;;
17921;SDS011;9086;50.966;3.144;2023-04-23T08:45:30;7.97;;;3.97;;
17921;SDS011;9086;50.966;3.144;2023-04-23T08:47:58;5.97;;;3.43;;
17921;SDS011;9086;50.966;3.144;2023-04-23T08:50:24;6.22;;;3.50;;
17921;SDS011;9086;50.966;3.144;2023-04-23T08:52:54;6.63;;;3.63;;
17921;SDS011;9086;50.966;3.144;2023-04-23T08:55:23;6.33;;;3.90;;
17921;SDS011;9086;50.966;3.144;2023-04-23T08:57:50;8.87;;;3.83;;
17921;SDS011;9086;50.966;3.144;2023-04-23T09:00:19;7.33;;;4.40;;
17921;SDS011;9086;50.966;3.144;2023-04-23T09:02:47;8.67;;;4.20;;
17921;SDS011;9086;50.966;3.144;2023-04-23T09:05:13;5.93;;;3.77;;
17921;SDS011;9086;50.966;3.144;2023-04-23T09:07:44;9.03;;;4.37;;
17921;SDS011;9086;50.966;3.144;2023-04-23T09:10:12;8.00;;;4.40;;
17921;SDS011;9086;50.966;3.144;2023-04-23T09:12:39;7.13;;;3.80;;
17921;SDS011;9086;50.966;3.144;2023-04-23T09:15:06;7.37;;;3.90;;
17921;SDS011;9086;50.966;3.144;2023-04-23T09:17:40;9.37;;;4.73;;
17921;SDS011;9086;50.966;3.144;2023-04-23T09:20:07;9.47;;;4.63;;
17921;SDS011;9086;50.966;3.144;2023-04-23T09:22:37;7.03;;;3.13;;
17921;SDS011;9086;50.966;3.144;2023-04-23T09:25:04;7.33;;;3.43;;
17921;SDS011;9086;50.966;3.144;2023-04-23T09:27:33;7.23;;;3.77;;
17921;SDS011;9086;50.966;3.144;2023-04-23T09:30:00;8.17;;;2.93;;
17921;SDS011;9086;50.966;3.144;2023-04-23T09:32:31;7.43;;;2.83;;
17921;SDS011;9086;50.966;3.144;2023-04-23T09:34:57;3.97;;;2.53;;
17921;SDS011;9086;50.966;3.144;2023-04-23T09:37:25;5.20;;;3.43;;
17921;SDS011;9086;50.966;3.144;2023-04-23T09:39:53;6.27;;;3.30;;
17921;SDS011;9086;50.966;3.144;2023-04-23T09:42:23;7.87;;;3.53;;
17921;SDS011;9086;50.966;3.144;2023-04-23T09:44:57;6.67;;;3.33;;
17921;SDS011;9086;50.966;3.144;2023-04-23T09:47:24;7.57;;;3.47;;
17921;SDS011;9086;50.966;3.144;2023-04-23T09:49:50;7.20;;;3.40;;
17921;SDS011;9086;50.966;3.144;2023-04-23T09:52:16;8.67;;;3.47;;
17921;SDS011;9086;50.966;3.144;2023-04-23T09:54:47;6.97;;;3.37;;
17921;SDS011;9086;50.966;3.144;2023-04-23T09:57:13;5.70;;;3.50;;
17921;SDS011;9086;50.966;3.144;2023-04-23T09:59:40;7.37;;;3.43;;
17921;SDS011;9086;50.966;3.144;2023-04-23T10:02:07;10.53;;;3.47;;
17921;SDS011;9086;50.966;3.144;2023-04-23T10:04:36;4.63;;;2.40;;
17921;SDS011;9086;50.966;3.144;2023-04-23T10:07:11;6.50;;;3.20;;
17921;SDS011;9086;50.966;3.144;2023-04-23T10:09:40;3.53;;;2.63;;
17921;SDS011;9086;50.966;3.144;2023-04-23T10:12:06;5.73;;;3.13;;
17921;SDS011;9086;50.966;3.144;2023-04-23T10:14:37;6.30;;;2.83;;
17921;SDS011;9086;50.966;3.144;2023-04-23T10:17:06;6.50;;;2.73;;
17921;SDS011;9086;50.966;3.144;2023-04-23T10:19:32;6.90;;;2.43;;
17921;SDS011;9086;50.966;3.144;2023-04-23T10:21:59;3.87;;;2.57;;
17921;SDS011;9086;50.966;3.144;2023-04-23T10:24:30;6.60;;;2.73;;
17921;SDS011;9086;50.966;3.144;2023-04-23T10:27:00;4.67;;;2.77;;
17921;SDS011;9086;50.966;3.144;2023-04-23T10:29:27;7.63;;;2.97;;
17921;SDS011;9086;50.966;3.144;2023-04-23T10:31:54;4.20;;;2.40;;
17921;SDS011;9086;50.966;3.144;2023-04-23T10:34:26;7.13;;;2.63;;
17921;SDS011;9086;50.966;3.144;2023-04-23T10:36:53;5.83;;;2.90;;
17921;SDS011;9086;50.966;3.144;2023-04-23T10:39:19;4.33;;;2.40;;
17921;SDS011;9086;50.966;3.144;2023-04-23T10:41:46;4.27;;;1.70;;
